createdAt,value
2019-04-02T00:00:36.793Z,1007.64
2019-04-02T00:01:36.754Z,1007.59
2019-04-02T00:02:36.741Z,1007.62
2019-04-02T00:03:37.908Z,1007.57
2019-04-02T00:04:36.747Z,1007.55
2019-04-02T00:05:36.737Z,1007.52
2019-04-02T00:06:36.698Z,1007.52
2019-04-02T00:07:36.685Z,1007.51
2019-04-02T00:08:36.675Z,1007.50
2019-04-02T00:09:36.666Z,1007.50
2019-04-02T00:10:36.734Z,1007.49
2019-04-02T00:11:36.643Z,1007.49
2019-04-02T00:12:36.631Z,1007.46
2019-04-02T00:13:36.623Z,1007.48
2019-04-02T00:14:36.610Z,1007.48
2019-04-02T00:15:36.622Z,1007.45
2019-04-02T00:16:36.588Z,1007.40
2019-04-02T00:17:36.575Z,1007.43
2019-04-02T00:18:37.278Z,1007.43
2019-04-02T00:19:36.556Z,1007.40
2019-04-02T00:20:36.566Z,1007.39
2019-04-02T00:21:36.532Z,1007.35
2019-04-02T00:22:36.525Z,1007.33
2019-04-02T00:23:36.512Z,1007.35
2019-04-02T00:24:36.501Z,1007.31
2019-04-02T00:25:36.508Z,1007.30
2019-04-02T00:26:36.475Z,1007.28
2019-04-02T00:27:36.493Z,1007.22
2019-04-02T00:28:36.456Z,1007.21
2019-04-02T00:29:36.442Z,1007.21
2019-04-02T00:30:36.440Z,1007.15
2019-04-02T00:31:36.444Z,1007.14
2019-04-02T00:32:36.409Z,1007.16
2019-04-02T00:33:38.112Z,1007.11
2019-04-02T00:34:36.700Z,1007.11
2019-04-02T00:35:36.378Z,1007.12
2019-04-02T00:36:36.391Z,1007.14
2019-04-02T00:37:37.228Z,1007.15
2019-04-02T00:38:36.347Z,1007.13
2019-04-02T00:39:36.333Z,1007.14
2019-04-02T00:40:36.335Z,1007.14
2019-04-02T00:41:36.337Z,1007.11
2019-04-02T00:42:36.299Z,1007.05
2019-04-02T00:43:36.319Z,1007.07
2019-04-02T00:44:36.275Z,1007.06
2019-04-02T00:45:36.268Z,1007.03
2019-04-02T00:46:36.282Z,1007.10
2019-04-02T00:47:36.242Z,1007.04
2019-04-02T00:48:36.231Z,1007.08
2019-04-02T00:49:36.224Z,1007.06
2019-04-02T00:50:36.210Z,1007.05
2019-04-02T00:51:36.221Z,1007.06
2019-04-02T00:52:36.723Z,1007.03
2019-04-02T00:53:36.181Z,1006.98
2019-04-02T00:54:36.166Z,1006.99
2019-04-02T00:55:36.159Z,1007.00
2019-04-02T00:56:36.196Z,1007.00
2019-04-02T00:57:36.134Z,1007.00
2019-04-02T00:58:36.120Z,1006.94
2019-04-02T00:59:36.111Z,1006.97
2019-04-02T01:00:36.102Z,1007.02
2019-04-02T01:01:36.139Z,1006.94
2019-04-02T01:02:36.082Z,1006.95
2019-04-02T01:03:36.069Z,1006.95
2019-04-02T01:04:36.053Z,1006.91
2019-04-02T01:05:36.925Z,1006.89
2019-04-02T01:06:36.056Z,1006.92
2019-04-02T01:07:36.021Z,1006.84
2019-04-02T01:08:36.011Z,1006.83
2019-04-02T01:09:36.022Z,1006.82
2019-04-02T01:10:35.991Z,1006.80
2019-04-02T01:11:36.000Z,1006.85
2019-04-02T01:12:35.968Z,1006.78
2019-04-02T01:13:35.955Z,1006.79
2019-04-02T01:14:35.967Z,1006.78
2019-04-02T01:15:35.935Z,1006.79
2019-04-02T01:16:35.947Z,1006.79
2019-04-02T01:17:35.911Z,1006.76
2019-04-02T01:18:35.915Z,1006.72
2019-04-02T01:19:35.889Z,1006.72
2019-04-02T01:20:36.992Z,1006.70
2019-04-02T01:21:35.876Z,1006.73
2019-04-02T01:22:35.878Z,1006.69
2019-04-02T01:23:35.845Z,1006.68
2019-04-02T01:24:35.853Z,1006.67
2019-04-02T01:25:35.823Z,1006.64
2019-04-02T01:26:35.814Z,1006.64
2019-04-02T01:27:35.821Z,1006.63
2019-04-02T01:28:35.823Z,1006.60
2019-04-02T01:29:35.777Z,1006.60
2019-04-02T01:30:35.765Z,1006.60
2019-04-02T01:31:35.757Z,1006.58
2019-04-02T01:32:35.769Z,1006.56
2019-04-02T01:33:35.766Z,1006.55
2019-04-02T01:34:35.721Z,1006.53
2019-04-02T01:35:37.100Z,1006.54
2019-04-02T01:36:36.317Z,1006.54
2019-04-02T01:37:35.716Z,1006.48
2019-04-02T01:38:35.681Z,1006.54
2019-04-02T01:39:35.673Z,1006.51
2019-04-02T01:40:35.656Z,1006.53
2019-04-02T01:41:35.653Z,1006.45
2019-04-02T01:42:35.660Z,1006.50
2019-04-02T01:43:35.643Z,1006.49
2019-04-02T01:44:35.613Z,1006.44
2019-04-02T01:45:35.604Z,1006.52
2019-04-02T01:46:35.595Z,1006.51
2019-04-02T01:47:35.602Z,1006.43
2019-04-02T01:48:35.573Z,1006.47
2019-04-02T01:49:35.576Z,1006.43
2019-04-02T01:50:36.170Z,1006.42
2019-04-02T01:51:35.535Z,1006.40
2019-04-02T01:52:35.548Z,1006.41
2019-04-02T01:53:35.510Z,1006.41
2019-04-02T01:54:35.508Z,1006.40
2019-04-02T01:55:35.500Z,1006.33
2019-04-02T01:56:35.482Z,1006.31
2019-04-02T01:57:35.495Z,1006.30
2019-04-02T01:58:35.456Z,1006.29
2019-04-02T01:59:35.447Z,1006.24
2019-04-02T02:00:35.435Z,1006.20
2019-04-02T02:01:35.426Z,1006.21
2019-04-02T02:02:35.434Z,1006.21
2019-04-02T02:03:35.415Z,1006.14
2019-04-02T02:04:35.391Z,1006.16
2019-04-02T02:05:35.382Z,1006.14
2019-04-02T02:06:35.367Z,1006.16
2019-04-02T02:07:35.380Z,1006.10
2019-04-02T02:08:37.146Z,1006.11
2019-04-02T02:09:35.635Z,1006.11
2019-04-02T02:10:35.321Z,1006.08
2019-04-02T02:11:35.321Z,1006.10
2019-04-02T02:12:35.360Z,1006.02
2019-04-02T02:13:35.291Z,1006.05
2019-04-02T02:14:35.298Z,1006.07
2019-04-02T02:15:35.269Z,1006.05
2019-04-02T02:16:35.257Z,1006.00
2019-04-02T02:17:35.270Z,1006.05
2019-04-02T02:18:35.233Z,1006.01
2019-04-02T02:19:35.229Z,1006.01
2019-04-02T02:20:35.212Z,1005.95
2019-04-02T02:21:35.239Z,1005.97
2019-04-02T02:22:35.196Z,1005.99
2019-04-02T02:23:35.202Z,1005.89
2019-04-02T02:24:35.171Z,1005.86
2019-04-02T02:25:35.156Z,1005.87
2019-04-02T02:26:35.264Z,1005.88
2019-04-02T02:27:35.165Z,1005.82
2019-04-02T02:28:35.146Z,1005.81
2019-04-02T02:29:35.124Z,1005.82
2019-04-02T02:30:35.104Z,1005.78
2019-04-02T02:31:36.215Z,1005.79
2019-04-02T02:32:36.448Z,1005.81
2019-04-02T02:33:37.340Z,1005.82
2019-04-02T02:34:35.061Z,1005.81
2019-04-02T02:35:35.069Z,1005.79
2019-04-02T02:36:35.039Z,1005.78
2019-04-02T02:37:35.030Z,1005.75
2019-04-02T02:38:35.040Z,1005.75
2019-04-02T02:39:35.022Z,1005.76
2019-04-02T02:40:34.996Z,1005.72
2019-04-02T02:41:34.981Z,1005.71
2019-04-02T02:42:34.969Z,1005.72
2019-04-02T02:43:34.982Z,1005.70
2019-04-02T02:44:34.993Z,1005.66
2019-04-02T02:45:34.952Z,1005.69
2019-04-02T02:46:34.929Z,1005.71
2019-04-02T02:47:34.916Z,1005.66
2019-04-02T02:48:34.941Z,1005.67
2019-04-02T02:49:34.893Z,1005.65
2019-04-02T02:50:34.879Z,1005.62
2019-04-02T02:51:34.879Z,1005.63
2019-04-02T02:52:34.857Z,1005.62
2019-04-02T02:53:34.874Z,1005.58
2019-04-02T02:54:34.835Z,1005.57
2019-04-02T02:55:34.826Z,1005.56
2019-04-02T02:56:34.828Z,1005.51
2019-04-02T02:57:34.805Z,1005.46
2019-04-02T02:58:34.822Z,1005.48
2019-04-02T02:59:34.825Z,1005.45
2019-04-02T03:00:34.768Z,1005.45
2019-04-02T03:01:37.994Z,1005.43
2019-04-02T03:02:34.750Z,1005.39
2019-04-02T03:03:34.763Z,1005.41
2019-04-02T03:04:34.756Z,1005.43
2019-04-02T03:05:34.716Z,1005.41
2019-04-02T03:06:34.703Z,1005.39
2019-04-02T03:07:34.694Z,1005.34
2019-04-02T03:08:34.696Z,1005.31
2019-04-02T03:09:34.710Z,1005.33
2019-04-02T03:10:35.251Z,1005.29
2019-04-02T03:11:35.344Z,1005.30
2019-04-02T03:12:36.225Z,1005.25
2019-04-02T03:13:37.054Z,1005.26
2019-04-02T03:14:34.646Z,1005.18
2019-04-02T03:15:34.606Z,1005.24
2019-04-02T03:16:34.598Z,1005.14
2019-04-02T03:17:34.627Z,1005.21
2019-04-02T03:18:34.575Z,1005.18
2019-04-02T03:19:34.588Z,1005.16
2019-04-02T03:20:34.549Z,1005.19
2019-04-02T03:21:34.570Z,1005.17
2019-04-02T03:22:34.527Z,1005.13
2019-04-02T03:23:34.514Z,1005.12
2019-04-02T03:24:34.534Z,1005.06
2019-04-02T03:25:34.500Z,1005.06
2019-04-02T03:26:34.481Z,1005.03
2019-04-02T03:27:34.471Z,1005.01
2019-04-02T03:28:34.467Z,1004.96
2019-04-02T03:29:34.475Z,1004.95
2019-04-02T03:30:34.437Z,1004.88
2019-04-02T03:31:35.866Z,1004.89
2019-04-02T03:32:34.414Z,1004.83
2019-04-02T03:33:34.425Z,1004.82
2019-04-02T03:34:34.418Z,1004.85
2019-04-02T03:35:34.818Z,1004.79
2019-04-02T03:36:35.473Z,1004.76
2019-04-02T03:37:34.935Z,1004.83
2019-04-02T03:38:36.964Z,1004.80
2019-04-02T03:39:34.354Z,1004.75
2019-04-02T03:40:34.332Z,1004.77
2019-04-02T03:41:34.321Z,1004.76
2019-04-02T03:42:34.298Z,1004.73
2019-04-02T03:43:34.296Z,1004.76
2019-04-02T03:44:34.304Z,1004.73
2019-04-02T03:45:34.267Z,1004.68
2019-04-02T03:46:34.277Z,1004.65
2019-04-02T03:47:34.244Z,1004.64
2019-04-02T03:48:36.670Z,1004.62
2019-04-02T03:49:34.244Z,1004.64
2019-04-02T03:50:34.210Z,1004.64
2019-04-02T03:51:34.197Z,1004.65
2019-04-02T03:52:34.191Z,1004.70
2019-04-02T03:53:34.211Z,1004.69
2019-04-02T03:54:34.196Z,1004.66
2019-04-02T03:55:34.151Z,1004.65
2019-04-02T03:56:34.141Z,1004.63
2019-04-02T03:57:34.128Z,1004.63
2019-04-02T03:58:34.120Z,1004.61
2019-04-02T03:59:34.134Z,1004.58
2019-04-02T04:00:34.101Z,1004.59
2019-04-02T04:01:34.097Z,1004.61
2019-04-02T04:02:34.077Z,1004.56
2019-04-02T04:03:34.066Z,1004.55
2019-04-02T04:04:34.055Z,1004.53
2019-04-02T04:05:34.397Z,1004.52
2019-04-02T04:06:34.807Z,1004.51
2019-04-02T04:07:36.819Z,1004.50
2019-04-02T04:08:35.005Z,1004.48
2019-04-02T04:09:33.995Z,1004.49
2019-04-02T04:10:34.011Z,1004.44
2019-04-02T04:11:33.991Z,1004.45
2019-04-02T04:12:33.968Z,1004.48
2019-04-02T04:13:33.949Z,1004.47
2019-04-02T04:14:33.965Z,1004.49
2019-04-02T04:15:33.952Z,1004.46
2019-04-02T04:16:33.913Z,1004.42
2019-04-02T04:17:33.901Z,1004.38
2019-04-02T04:18:33.898Z,1004.36
2019-04-02T04:19:33.908Z,1004.31
2019-04-02T04:20:33.890Z,1004.34
2019-04-02T04:21:33.856Z,1004.34
2019-04-02T04:22:33.849Z,1004.31
2019-04-02T04:23:33.839Z,1004.35
2019-04-02T04:24:33.833Z,1004.32
2019-04-02T04:25:33.847Z,1004.34
2019-04-02T04:26:33.837Z,1004.31
2019-04-02T04:27:34.322Z,1004.30
2019-04-02T04:28:34.768Z,1004.29
2019-04-02T04:29:34.311Z,1004.27
2019-04-02T04:30:33.753Z,1004.27
2019-04-02T04:31:33.782Z,1004.30
2019-04-02T04:32:33.771Z,1004.28
2019-04-02T04:33:33.722Z,1004.25
2019-04-02T04:34:33.710Z,1004.26
2019-04-02T04:35:33.702Z,1004.22
2019-04-02T04:36:33.726Z,1004.24
2019-04-02T04:37:33.681Z,1004.21
2019-04-02T04:38:33.685Z,1004.16
2019-04-02T04:39:33.660Z,1004.12
2019-04-02T04:40:33.644Z,1004.15
2019-04-02T04:41:33.671Z,1004.24
2019-04-02T04:42:33.621Z,1004.18
2019-04-02T04:43:33.613Z,1004.20
2019-04-02T04:44:33.622Z,1004.23
2019-04-02T04:45:33.588Z,1004.16
2019-04-02T04:46:33.600Z,1004.12
2019-04-02T04:47:33.564Z,1004.11
2019-04-02T04:48:33.550Z,1004.10
2019-04-02T04:49:33.572Z,1004.16
2019-04-02T04:50:33.532Z,1004.18
2019-04-02T04:51:33.543Z,1004.19
2019-04-02T04:52:33.509Z,1004.19
2019-04-02T04:53:33.499Z,1004.16
2019-04-02T04:54:33.927Z,1004.13
2019-04-02T04:55:33.480Z,1004.18
2019-04-02T04:56:35.698Z,1004.17
2019-04-02T04:57:33.978Z,1004.19
2019-04-02T04:58:33.460Z,1004.15
2019-04-02T04:59:33.436Z,1004.16
2019-04-02T05:00:33.422Z,1004.14
2019-04-02T05:01:33.428Z,1004.11
2019-04-02T05:02:33.400Z,1004.08
2019-04-02T05:03:33.385Z,1004.09
2019-04-02T05:04:33.405Z,1004.05
2019-04-02T05:05:33.361Z,1004.03
2019-04-02T05:06:33.355Z,1004.00
2019-04-02T05:07:33.364Z,1004.00
2019-04-02T05:08:33.326Z,1003.97
2019-04-02T05:09:33.319Z,1003.91
2019-04-02T05:10:33.305Z,1003.92
2019-04-02T05:11:33.321Z,1003.92
2019-04-02T05:12:33.312Z,1003.91
2019-04-02T05:13:33.273Z,1003.87
2019-04-02T05:14:33.262Z,1003.93
2019-04-02T05:15:33.255Z,1003.95
2019-04-02T05:16:33.239Z,1003.88
2019-04-02T05:17:33.249Z,1003.88
2019-04-02T05:18:33.232Z,1003.93
2019-04-02T05:19:33.204Z,1003.85
2019-04-02T05:20:33.192Z,1003.87
2019-04-02T05:21:33.202Z,1003.88
2019-04-02T05:22:33.192Z,1003.82
2019-04-02T05:23:33.168Z,1003.82
2019-04-02T05:24:33.157Z,1003.81
2019-04-02T05:25:33.139Z,1003.82
2019-04-02T05:26:33.129Z,1003.80
2019-04-02T05:27:33.135Z,1003.85
2019-04-02T05:28:33.103Z,1003.87
2019-04-02T05:29:33.092Z,1003.84
2019-04-02T05:30:33.181Z,1003.87
2019-04-02T05:31:33.090Z,1003.77
2019-04-02T05:32:33.082Z,1003.78
2019-04-02T05:33:33.050Z,1003.74
2019-04-02T05:34:33.042Z,1003.69
2019-04-02T05:35:33.023Z,1003.71
2019-04-02T05:36:33.011Z,1003.79
2019-04-02T05:37:33.058Z,1003.73
2019-04-02T05:38:32.993Z,1003.80
2019-04-02T05:39:32.979Z,1003.78
2019-04-02T05:40:32.974Z,1003.75
2019-04-02T05:41:32.986Z,1003.75
2019-04-02T05:42:32.969Z,1003.73
2019-04-02T05:43:32.934Z,1003.71
2019-04-02T05:44:32.923Z,1003.68
2019-04-02T05:45:32.921Z,1003.64
2019-04-02T05:46:34.303Z,1003.71
2019-04-02T05:47:33.433Z,1003.65
2019-04-02T05:48:32.916Z,1003.69
2019-04-02T05:49:32.874Z,1003.64
2019-04-02T05:50:32.859Z,1003.67
2019-04-02T05:51:32.852Z,1003.68
2019-04-02T05:52:32.840Z,1003.67
2019-04-02T05:53:32.850Z,1003.68
2019-04-02T05:54:32.834Z,1003.69
2019-04-02T05:55:32.803Z,1003.64
2019-04-02T05:56:32.793Z,1003.61
2019-04-02T05:57:32.782Z,1003.63
2019-04-02T05:58:35.008Z,1003.63
2019-04-02T05:59:32.756Z,1003.60
2019-04-02T06:00:32.747Z,1003.58
2019-04-02T06:01:32.737Z,1003.61
2019-04-02T06:02:32.727Z,1003.62
2019-04-02T06:03:32.738Z,1003.59
2019-04-02T06:04:32.703Z,1003.55
2019-04-02T06:05:32.703Z,1003.58
2019-04-02T06:06:32.689Z,1003.56
2019-04-02T06:07:32.671Z,1003.55
2019-04-02T06:08:33.422Z,1003.49
2019-04-02T06:09:32.646Z,1003.51
2019-04-02T06:10:33.022Z,1003.49
2019-04-02T06:11:32.820Z,1003.47
2019-04-02T06:12:32.613Z,1003.49
2019-04-02T06:13:32.627Z,1003.47
2019-04-02T06:14:32.592Z,1003.44
2019-04-02T06:15:32.587Z,1003.36
2019-04-02T06:16:32.568Z,1003.37
2019-04-02T06:17:32.559Z,1003.33
2019-04-02T06:18:32.570Z,1003.37
2019-04-02T06:19:32.568Z,1003.35
2019-04-02T06:20:32.523Z,1003.34
2019-04-02T06:21:32.522Z,1003.32
2019-04-02T06:22:32.502Z,1003.35
2019-04-02T06:23:32.517Z,1003.29
2019-04-02T06:24:32.479Z,1003.32
2019-04-02T06:25:32.467Z,1003.33
2019-04-02T06:26:32.464Z,1003.28
2019-04-02T06:27:32.490Z,1003.28
2019-04-02T06:28:32.462Z,1003.25
2019-04-02T06:29:32.428Z,1003.27
2019-04-02T06:30:32.441Z,1003.27
2019-04-02T06:31:32.404Z,1003.26
2019-04-02T06:32:32.392Z,1003.30
2019-04-02T06:33:32.405Z,1003.27
2019-04-02T06:34:32.368Z,1003.27
2019-04-02T06:35:32.365Z,1003.26
2019-04-02T06:36:32.349Z,1003.25
2019-04-02T06:37:32.336Z,1003.27
2019-04-02T06:38:32.358Z,1003.32
2019-04-02T06:39:32.319Z,1003.25
2019-04-02T06:40:32.300Z,1003.26
2019-04-02T06:41:32.295Z,1003.23
2019-04-02T06:42:32.278Z,1003.27
2019-04-02T06:43:32.294Z,1003.23
2019-04-02T06:44:32.283Z,1003.23
2019-04-02T06:45:32.248Z,1003.18
2019-04-02T06:46:32.233Z,1003.21
2019-04-02T06:47:32.224Z,1003.20
2019-04-02T06:48:32.219Z,1003.19
2019-04-02T06:49:32.230Z,1003.16
2019-04-02T06:50:32.195Z,1003.13
2019-04-02T06:51:32.177Z,1003.11
2019-04-02T06:52:32.166Z,1003.08
2019-04-02T06:53:32.154Z,1003.00
2019-04-02T06:54:32.175Z,1002.97
2019-04-02T06:55:32.133Z,1002.96
2019-04-02T06:56:32.131Z,1002.98
2019-04-02T06:57:32.112Z,1002.91
2019-04-02T06:58:32.099Z,1002.90
2019-04-02T06:59:32.111Z,1002.95
2019-04-02T07:00:32.468Z,1002.91
2019-04-02T07:01:32.938Z,1002.89
2019-04-02T07:02:32.054Z,1002.91
2019-04-02T07:03:32.046Z,1002.91
2019-04-02T07:04:37.889Z,1002.90
2019-04-02T07:05:33.063Z,1002.91
2019-04-02T07:06:32.011Z,1002.85
2019-04-02T07:07:32.049Z,1002.82
2019-04-02T07:08:31.989Z,1002.82
2019-04-02T07:09:44.117Z,1002.78
2019-04-02T07:10:43.110Z,1002.78
2019-04-02T07:11:42.729Z,1002.78
2019-04-02T07:12:42.844Z,1002.81
2019-04-02T07:13:32.968Z,1002.72
2019-04-02T07:14:31.993Z,1002.71
2019-04-02T07:15:31.911Z,1002.77
2019-04-02T07:16:31.900Z,1002.72
2019-04-02T07:17:31.937Z,1002.74
2019-04-02T07:18:31.875Z,1002.77
2019-04-02T07:19:31.888Z,1002.75
2019-04-02T07:20:31.860Z,1002.75
2019-04-02T07:21:31.861Z,1002.73
2019-04-02T07:22:31.837Z,1002.68
2019-04-02T07:23:31.821Z,1002.68
2019-04-02T07:24:31.856Z,1002.67
2019-04-02T07:25:31.898Z,1002.64
2019-04-02T07:26:31.850Z,1002.64
2019-04-02T07:27:31.783Z,1002.64
2019-04-02T07:28:31.766Z,1002.61
2019-04-02T07:29:31.785Z,1002.67
2019-04-02T07:30:31.744Z,1002.65
2019-04-02T07:33:42.981Z,1002.56
2019-04-02T07:34:43.067Z,1002.56
2019-04-02T07:35:42.944Z,1002.57
2019-04-02T07:36:42.919Z,1002.56
2019-04-02T07:37:42.907Z,1002.52
2019-04-02T07:38:42.897Z,1002.48
2019-04-02T07:39:42.909Z,1002.51
2019-04-02T07:40:42.873Z,1002.44
2019-04-02T07:41:45.272Z,1002.45
2019-04-02T07:42:42.851Z,1002.44
2019-04-02T07:43:42.842Z,1002.42
2019-04-02T07:44:42.853Z,1002.39
2019-04-02T07:45:42.821Z,1002.33
2019-04-02T07:46:42.806Z,1002.38
2019-04-02T07:47:44.630Z,1002.29
2019-04-02T07:48:42.784Z,1002.30
2019-04-02T07:49:42.802Z,1002.32
2019-04-02T07:50:42.764Z,1002.29
2019-04-02T07:51:42.752Z,1002.25
2019-04-02T07:52:42.742Z,1002.25
2019-04-02T07:53:42.728Z,1002.19
2019-04-02T07:54:42.717Z,1002.23
2019-04-02T07:55:42.729Z,1002.21
2019-04-02T07:56:42.693Z,1002.20
2019-04-02T07:57:42.683Z,1002.19
2019-04-02T07:58:42.674Z,1002.16
2019-04-02T07:59:42.675Z,1002.16
2019-04-02T08:00:42.673Z,1002.12
2019-04-02T08:01:42.637Z,1002.12
2019-04-02T08:02:42.625Z,1002.05
2019-04-02T08:03:42.615Z,1002.04
2019-04-02T08:04:42.607Z,1002.01
2019-04-02T08:05:42.617Z,1001.99
2019-04-02T08:06:42.584Z,1002.04
2019-04-02T08:07:42.571Z,1002.05
2019-04-02T08:08:42.558Z,1002.04
2019-04-02T08:09:42.552Z,1001.97
2019-04-02T08:10:43.498Z,1001.98
2019-04-02T08:11:42.538Z,1001.96
2019-04-02T08:12:42.513Z,1001.98
2019-04-02T08:13:42.505Z,1001.98
2019-04-02T08:14:42.490Z,1001.94
2019-04-02T08:15:42.503Z,1001.92
2019-04-02T08:16:42.476Z,1001.89
2019-04-02T08:17:42.974Z,1001.88
2019-04-02T08:18:43.679Z,1001.99
2019-04-02T08:19:42.437Z,1001.88
2019-04-02T08:20:42.445Z,1001.86
2019-04-02T08:21:42.410Z,1001.83
2019-04-02T08:22:42.405Z,1001.85
2019-04-02T08:23:42.388Z,1001.87
2019-04-02T08:24:42.380Z,1001.88
2019-04-02T08:25:42.391Z,1001.84
2019-04-02T08:26:42.357Z,1001.78
2019-04-02T08:27:42.345Z,1001.81
2019-04-02T08:28:44.513Z,1001.74
2019-04-02T08:29:42.325Z,1001.82
2019-04-02T08:30:42.335Z,1001.75
2019-04-02T08:31:42.299Z,1001.77
2019-04-02T08:32:42.293Z,1001.79
2019-04-02T08:33:42.275Z,1001.76
2019-04-02T08:34:42.264Z,1001.74
2019-04-02T08:35:42.279Z,1001.67
2019-04-02T08:36:42.247Z,1001.77
2019-04-02T08:37:42.232Z,1001.73
2019-04-02T08:38:42.219Z,1001.74
2019-04-02T08:39:42.207Z,1001.67
2019-04-02T08:40:42.219Z,1001.76
2019-04-02T08:41:42.186Z,1001.69
2019-04-02T08:42:42.176Z,1001.63
2019-04-02T08:43:42.163Z,1001.64
2019-04-02T08:44:42.152Z,1001.60
2019-04-02T08:45:42.164Z,1001.65
2019-04-02T08:46:42.129Z,1001.63
2019-04-02T08:47:42.116Z,1001.63
2019-04-02T08:48:42.109Z,1001.62
2019-04-02T08:49:42.096Z,1001.60
2019-04-02T08:50:42.106Z,1001.60
2019-04-02T08:51:42.075Z,1001.61
2019-04-02T08:52:42.065Z,1001.58
2019-04-02T08:53:42.051Z,1001.51
2019-04-02T08:54:42.038Z,1001.44
2019-04-02T08:55:42.055Z,1001.44
2019-04-02T08:56:42.015Z,1001.47
2019-04-02T08:57:53.355Z,1001.43
2019-04-02T08:58:51.505Z,1001.40
2019-04-02T08:59:55.192Z,1001.39
2019-04-02T09:00:42.995Z,1001.42
2019-04-02T09:01:41.958Z,1001.44
2019-04-02T09:02:43.285Z,1001.44
2019-04-02T09:03:41.936Z,1001.45
2019-04-02T09:04:41.925Z,1001.44
2019-04-02T09:05:41.938Z,1001.47
2019-04-02T09:06:43.566Z,1001.45
2019-04-02T09:07:41.892Z,1001.44
2019-04-02T09:08:41.895Z,1001.44
2019-04-02T09:09:41.928Z,1001.52
2019-04-02T09:10:41.919Z,1001.54
2019-04-02T09:11:41.846Z,1001.46
2019-04-02T09:12:41.834Z,1001.47
2019-04-02T09:13:42.736Z,1001.43
2019-04-02T09:14:41.810Z,1001.41
2019-04-02T09:15:41.822Z,1001.40
2019-04-02T09:16:41.795Z,1001.42
2019-04-02T09:17:41.830Z,1001.45
2019-04-02T09:18:41.770Z,1001.48
2019-04-02T09:19:41.757Z,1001.45
2019-04-02T09:20:41.783Z,1001.39
2019-04-02T09:21:41.734Z,1001.50
2019-04-02T09:22:41.724Z,1001.49
2019-04-02T09:23:41.711Z,1001.48
2019-04-02T09:24:41.699Z,1001.47
2019-04-02T09:25:41.711Z,1001.53
2019-04-02T09:26:41.675Z,1001.47
2019-04-02T09:27:41.663Z,1001.46
2019-04-02T09:28:43.961Z,1001.49
2019-04-02T09:29:43.492Z,1001.52
2019-04-02T09:30:41.659Z,1001.46
2019-04-02T09:31:41.809Z,1001.48
2019-04-02T09:32:41.608Z,1001.51
2019-04-02T09:33:41.596Z,1001.48
2019-04-02T09:34:41.585Z,1001.48
2019-04-02T09:35:42.230Z,1001.55
2019-04-02T09:36:41.566Z,1001.48
2019-04-02T09:37:41.550Z,1001.44
2019-04-02T09:38:43.049Z,1001.48
2019-04-02T09:39:41.528Z,1001.45
2019-04-02T09:40:41.542Z,1001.48
2019-04-02T09:41:41.504Z,1001.54
2019-04-02T09:42:41.495Z,1001.51
2019-04-02T09:43:42.477Z,1001.48
2019-04-02T09:44:41.471Z,1001.38
2019-04-02T09:45:41.485Z,1001.42
2019-04-02T09:46:41.449Z,1001.37
2019-04-02T09:47:41.445Z,1001.40
2019-04-02T09:48:41.427Z,1001.35
2019-04-02T09:49:41.417Z,1001.31
2019-04-02T09:50:41.433Z,1001.28
2019-04-02T09:51:41.401Z,1001.24
2019-04-02T09:52:41.387Z,1001.24
2019-04-02T09:53:41.375Z,1001.22
2019-04-02T09:54:41.363Z,1001.15
2019-04-02T09:55:48.762Z,1001.22
2019-04-02T09:56:42.502Z,1001.20
2019-04-02T09:57:41.324Z,1001.21
2019-04-02T09:58:42.250Z,1001.16
2019-04-02T09:59:41.305Z,1001.25
2019-04-02T10:00:41.323Z,1001.26
2019-04-02T10:01:41.286Z,1001.25
2019-04-02T10:02:41.268Z,1001.23
2019-04-02T10:03:41.272Z,1001.21
2019-04-02T10:04:41.491Z,1001.11
2019-04-02T10:05:44.034Z,1001.10
2019-04-02T10:06:41.226Z,1001.10
2019-04-02T10:07:41.211Z,1001.03
2019-04-02T10:08:41.204Z,1001.07
2019-04-02T10:09:41.194Z,1001.02
2019-04-02T10:10:41.262Z,1001.05
2019-04-02T10:11:41.172Z,1001.06
2019-04-02T10:12:41.160Z,1001.03
2019-04-02T10:13:41.142Z,1000.99
2019-04-02T10:14:41.352Z,1000.98
2019-04-02T10:15:41.144Z,1000.93
2019-04-02T10:16:42.949Z,1000.95
2019-04-02T10:17:43.450Z,1000.91
2019-04-02T10:18:41.121Z,1000.92
2019-04-02T10:19:41.076Z,1000.92
2019-04-02T10:20:41.091Z,1000.97
2019-04-02T10:21:41.054Z,1000.97
2019-04-02T10:22:41.043Z,1000.91
2019-04-02T10:23:41.059Z,1000.93
2019-04-02T10:24:41.020Z,1000.88
2019-04-02T10:25:41.042Z,1000.86
2019-04-02T10:26:40.997Z,1000.85
2019-04-02T10:27:40.993Z,1000.83
2019-04-02T10:28:40.973Z,1000.79
2019-04-02T10:29:40.963Z,1000.81
2019-04-02T10:30:40.956Z,1000.75
2019-04-02T10:31:40.972Z,1000.74
2019-04-02T10:32:40.928Z,1000.76
2019-04-02T10:33:40.920Z,1000.75
2019-04-02T10:34:40.905Z,1000.73
2019-04-02T10:35:40.923Z,1000.70
2019-04-02T10:36:40.883Z,1000.77
2019-04-02T10:37:40.874Z,1000.71
2019-04-02T10:38:40.860Z,1000.74
2019-04-02T10:39:41.072Z,1000.75
2019-04-02T10:40:40.842Z,1000.78
2019-04-02T10:41:40.856Z,1000.76
2019-04-02T10:42:40.816Z,1000.73
2019-04-02T10:43:40.815Z,1000.72
2019-04-02T10:44:40.804Z,1000.69
2019-04-02T10:45:40.795Z,1000.70
2019-04-02T10:46:40.797Z,1000.67
2019-04-02T10:47:40.766Z,1000.65
2019-04-02T10:48:40.753Z,1000.64
2019-04-02T10:49:40.745Z,1000.58
2019-04-02T10:50:40.877Z,1000.61
2019-04-02T10:51:40.739Z,1000.61
2019-04-02T10:52:40.737Z,1000.60
2019-04-02T10:53:40.727Z,1000.58
2019-04-02T10:54:40.691Z,1000.61
2019-04-02T10:55:40.674Z,1000.59
2019-04-02T10:56:40.693Z,1000.58
2019-04-02T10:57:40.652Z,1000.54
2019-04-02T10:58:42.103Z,1000.56
2019-04-02T10:59:40.625Z,1000.53
2019-04-02T11:00:40.617Z,1000.49
2019-04-02T11:01:40.626Z,1000.47
2019-04-02T11:02:40.591Z,1000.41
2019-04-02T11:03:40.585Z,1000.40
2019-04-02T11:04:40.585Z,1000.35
2019-04-02T11:05:40.593Z,1000.36
2019-04-02T11:06:40.570Z,1000.38
2019-04-02T11:07:40.536Z,1000.40
2019-04-02T11:08:40.525Z,1000.31
2019-04-02T11:09:40.518Z,1000.33
2019-04-02T11:10:40.504Z,1000.35
2019-04-02T11:11:40.509Z,1000.32
2019-04-02T11:12:40.476Z,1000.34
2019-04-02T11:13:40.467Z,1000.32
2019-04-02T11:14:40.494Z,1000.30
2019-04-02T11:15:40.499Z,1000.29
2019-04-02T11:16:40.455Z,1000.32
2019-04-02T11:17:40.435Z,1000.25
2019-04-02T11:18:40.407Z,1000.30
2019-04-02T11:19:40.403Z,1000.31
2019-04-02T11:20:42.302Z,1000.27
2019-04-02T11:21:40.397Z,1000.29
2019-04-02T11:22:40.364Z,1000.28
2019-04-02T11:23:40.356Z,1000.31
2019-04-02T11:24:40.341Z,1000.23
2019-04-02T11:25:40.331Z,1000.22
2019-04-02T11:26:40.349Z,1000.21
2019-04-02T11:27:40.303Z,1000.17
2019-04-02T11:28:40.293Z,1000.14
2019-04-02T11:29:40.302Z,1000.15
2019-04-02T11:30:40.273Z,1000.12
2019-04-02T11:31:40.283Z,1000.06
2019-04-02T11:32:40.247Z,1000.03
2019-04-02T11:33:40.240Z,1000.02
2019-04-02T11:34:40.231Z,999.98
2019-04-02T11:35:40.220Z,1000.02
2019-04-02T11:36:40.240Z,999.93
2019-04-02T11:37:40.190Z,999.96
2019-04-02T11:38:40.178Z,999.91
2019-04-02T11:39:40.168Z,999.85
2019-04-02T11:40:41.928Z,999.86
2019-04-02T11:41:40.169Z,999.82
2019-04-02T11:42:40.151Z,999.82
2019-04-02T11:43:40.122Z,999.77
2019-04-02T11:44:40.113Z,999.68
2019-04-02T11:45:40.099Z,999.66
2019-04-02T11:46:40.116Z,999.64
2019-04-02T11:47:40.077Z,999.71
2019-04-02T11:48:40.122Z,999.69
2019-04-02T11:49:40.055Z,999.74
2019-04-02T11:50:40.050Z,999.69
2019-04-02T11:51:40.056Z,999.71
2019-04-02T11:52:40.021Z,999.76
2019-04-02T11:53:41.193Z,999.76
2019-04-02T11:54:40.005Z,999.71
2019-04-02T11:55:39.988Z,999.66
2019-04-02T11:56:40.004Z,999.51
2019-04-02T11:57:41.346Z,999.49
2019-04-02T11:58:39.956Z,999.45
2019-04-02T11:59:39.942Z,999.49
2019-04-02T12:00:39.930Z,999.48
2019-04-02T12:01:39.950Z,999.50
2019-04-02T12:02:39.910Z,999.38
2019-04-02T12:03:39.897Z,999.33
2019-04-02T12:04:39.886Z,999.27
2019-04-02T12:05:39.873Z,999.19
2019-04-02T12:06:39.867Z,999.18
2019-04-02T12:07:41.666Z,999.21
2019-04-02T12:08:39.842Z,999.22